Köln, Germany

03:32 PM CET on februarie 14, 2016 (GMT +0100)
near Airport Cologne/Bonn | | Change Station
CLOSE
Current Station
Staţie meteo personală
Location: Köln, NORDRHEIN-WESTFALEN
Elevation: 180 ft
Nearby Weather Stations

Elev 180 ft 50.88 °N, 7.10 °E | Updated 34 seconds ago

Mostly Cloudy
Cer în general noros
39.2 °F
Feels Like 39 °F
N
3.0
Vânt variabil Vânt from SE
Gusts 3.0 mph

astăzi
High -- | Low -- °F
--% Chance of Precip.
Ieri
High -- | Low -- °F
Precip. -- inch
Presiunea 29.24 inch
Vizibilitatea 6.2 mile
Nori Few 1100 ft
Cer în general noros 1400 ft
Cer în general noros 2200 ft
Vânt rece 39 °F
Punctul de rouă 32 °F
Umiditatea 77%
Precipitaţii 0.21 inch
Adâncimea zăpezii Not available.
7:46 AM 5:44 PM
Semilună în creştere, 42% visible
METAR EDDK 141420Z 26007KT 9999 FEW011 BKN014 BKN022 04/02 Q0990 NOSIG
Presiunea 29.24 inch
Vizibilitatea 6.2 mile
Nori Few 1100 ft
Cer în general noros 1400 ft
Cer în general noros 2200 ft
Vânt rece 39 °F
Punctul de rouă 32 °F
Umiditatea 77%
Precipitaţii 0.21 inch
Adâncimea zăpezii Not available.
7:46 AM 5:44 PM
Semilună în creştere, 42% visible
METAR EDDK 141420Z 26007KT 9999 FEW011 BKN014 BKN022 04/02 Q0990 NOSIG

10-Day Weather Forecast

Almanac

Astronomie

Feb. 14, 2016 Răsărit Apus
Timpul Actual
Crepusculul Civil
Crepusculul nautic
Răsărit Astronomic
Luna
Durata zilei lumină
Lungimea zilei
Tomorrow will be .
, % of the Moon is Illuminated

Extremele de azi

Country Highs Country Lows

Community

WunderPhotos

Upload Photos

1,892,773 photos uploaded!

WunderBlog® & News

Nearby

Calitatea aerului

  Calitatea aerului Index de calitate a aerului Poluat
Not available.

Adâncimea zapezii

Station Depth Elevation

Earthquake Activity

Oraş Distance Mag. Time & Date
Minimum magnitude displayed is 2.5.

Coastal Water Temperatures

Locul Temperatura

Stations

Nearby Weather Stations

Locaţia staţiei Temp Vânt rece Punctul de rouă Umiditatea Vânt Precip. Elev Actualizare Type